Time;durP1;ratioP1;P1;durP2;ratioP2;P2;SDS_P1;SDS_P2;PMS_P1;PMS_P2;Temp;Humidity;BMP_temperature;BMP_pressure;BME280_temperature;BME280_humidity;BME280_pressure;Samples;Min_cycle;Max_cycle;Signal;HPM_P1;HPM_P2
2021/04/06 00:01:47;;;;;;;17.00;9.05;;;;;;;3.75;58.46;98172.30;117225;1212;22941;-59
2021/04/06 00:04:16;;;;;;;12.07;7.43;;;;;;;3.73;59.04;98164.47;117208;1209;22816;-58
2021/04/06 00:06:47;;;;;;;11.17;7.53;;;;;;;3.70;58.83;98167.64;117246;1207;22894;-59
2021/04/06 00:09:16;;;;;;;16.77;8.77;;;;;;;3.69;59.24;98167.89;117157;1209;22915;-59
2021/04/06 00:11:44;;;;;;;12.90;7.90;;;;;;;3.67;59.56;98170.02;117236;1212;22965;-59
2021/04/06 00:14:13;;;;;;;15.57;8.13;;;;;;;3.66;59.52;98173.77;117225;1209;23615;-59
2021/04/06 00:16:41;;;;;;;14.40;8.43;;;;;;;3.65;59.43;98175.64;117268;1209;22851;-59
2021/04/06 00:19:09;;;;;;;14.50;7.90;;;;;;;3.63;59.60;98166.17;117196;1209;22889;-59
2021/04/06 00:21:36;;;;;;;13.60;8.60;;;;;;;3.63;59.38;98166.17;117220;1212;23513;-59
2021/04/06 00:24:05;;;;;;;13.67;8.40;;;;;;;3.62;59.70;98157.27;117214;1212;22876;-59
2021/04/06 00:26:54;;;;;;;17.27;8.97;;;;;;;3.61;59.64;98162.94;117189;1209;22798;-59
2021/04/06 00:29:26;;;;;;;14.80;9.10;;;;;;;3.59;59.91;98159.67;117253;1209;24311;-59
2021/04/06 00:31:56;;;;;;;18.73;9.20;;;;;;;3.58;60.11;98152.65;117129;1212;22896;-59
2021/04/06 00:34:23;;;;;;;12.53;8.40;;;;;;;3.55;60.16;98152.08;117246;1212;22893;-59
2021/04/06 00:36:54;;;;;;;15.80;8.70;;;;;;;3.54;60.17;98153.14;117167;1209;22896;-59
2021/04/06 00:39:30;;;;;;;13.83;8.93;;;;;;;3.52;60.04;98149.05;117311;1209;22910;-59
2021/04/06 00:42:11;;;;;;;14.13;8.80;;;;;;;3.52;60.68;98151.75;117165;1209;22800;-59
2021/04/06 00:44:42;;;;;;;13.40;8.03;;;;;;;3.49;60.83;98147.66;118155;1207;22871;-59
2021/04/06 00:47:14;;;;;;;14.83;8.37;;;;;;;3.49;60.21;98147.66;117848;1203;23016;-59
2021/04/06 00:49:42;;;;;;;15.50;8.33;;;;;;;3.49;60.53;98152.23;118187;1208;22795;-59
2021/04/06 00:52:11;;;;;;;13.25;8.05;;;;;;;3.48;60.16;98143.34;117754;1203;24180;-59
2021/04/06 00:54:39;;;;;;;14.00;8.55;;;;;;;3.47;60.59;98147.09;118190;1203;23725;-59
2021/04/06 00:57:07;;;;;;;15.10;9.10;;;;;;;3.46;60.66;98139.28;117869;1203;22962;-59
2021/04/06 00:59:35;;;;;;;18.90;9.07;;;;;;;3.44;60.86;98139.52;118185;1203;22935;-60
2021/04/06 01:02:07;;;;;;;14.05;7.85;;;;;;;3.45;60.67;98157.31;117901;1206;23435;-59
2021/04/06 01:04:38;;;;;;;15.10;8.10;;;;;;;3.44;61.19;98150.30;118197;1203;22894;-59
2021/04/06 01:07:16;;;;;;;15.10;9.15;;;;;;;3.46;60.77;98152.75;114910;1209;26146;-58
2021/04/06 01:09:44;;;;;;;15.05;8.60;;;;;;;3.45;61.15;98154.62;117954;1203;22920;-59
2021/04/06 01:12:14;;;;;;;19.67;8.53;;;;;;;3.42;60.71;98149.72;118106;1207;22895;-59
2021/04/06 01:14:44;;;;;;;12.90;8.40;;;;;;;3.41;61.11;98158.86;118229;1203;22881;-59
2021/04/06 01:17:13;;;;;;;13.50;8.43;;;;;;;3.40;61.28;98143.77;117897;1203;22923;-59
2021/04/06 01:19:41;;;;;;;13.65;9.40;;;;;;;3.39;61.08;98149.39;118164;1203;22941;-60
2021/04/06 01:22:10;;;;;;;13.60;9.10;;;;;;;3.37;61.27;98149.63;118108;1208;22961;-59
2021/04/06 01:24:39;;;;;;;15.95;9.40;;;;;;;3.34;61.83;98143.91;118241;1206;22904;-59
2021/04/06 01:27:08;;;;;;;19.40;9.60;;;;;;;3.31;61.61;98144.42;118083;1203;28747;-59
2021/04/06 01:29:40;;;;;;;17.10;9.27;;;;;;;3.29;61.46;98138.47;117953;1206;23491;-60
2021/04/06 01:32:08;;;;;;;13.85;9.10;;;;;;;3.28;61.43;98147.60;118100;1203;22886;-59
2021/04/06 01:34:35;;;;;;;14.83;8.53;;;;;;;3.25;61.80;98143.52;117742;1205;23365;-60
2021/04/06 01:37:03;;;;;;;19.65;8.70;;;;;;;3.24;61.99;98141.88;117912;1203;22829;-60
2021/04/06 01:39:30;;;;;;;18.65;9.40;;;;;;;3.23;61.74;98136.74;117812;1203;22963;-59
2021/04/06 01:42:06;;;;;;;16.05;9.75;;;;;;;3.23;61.78;98142.13;118001;1208;22774;-60
2021/04/06 01:44:36;;;;;;;19.30;9.73;;;;;;;3.20;62.03;98146.93;117760;1205;22925;-60
2021/04/06 01:47:04;;;;;;;15.50;9.45;;;;;;;3.19;62.38;98153.38;117925;1203;22904;-60
2021/04/06 01:49:32;;;;;;;16.10;9.50;;;;;;;3.20;62.11;98154.19;117833;1205;22819;-59
2021/04/06 01:52:00;;;;;;;15.77;8.40;;;;;;;3.22;62.20;98152.08;118204;1207;22844;-60
2021/04/06 01:54:27;;;;;;;15.67;9.30;;;;;;;3.22;62.24;98149.38;117811;1205;22896;-60
2021/04/06 01:57:00;;;;;;;16.00;9.30;;;;;;;3.23;61.90;98148.33;117971;1203;22845;-59
2021/04/06 01:59:35;;;;;;;16.57;9.83;;;;;;;3.24;62.35;98144.58;117803;1203;22927;-60
2021/04/06 02:02:03;;;;;;;16.30;9.43;;;;;;;3.23;61.98;98139.44;118229;1206;22909;-59
2021/04/06 02:04:31;;;;;;;15.80;10.10;;;;;;;3.23;62.30;98145.63;118125;1203;22878;-59
2021/04/06 02:07:00;;;;;;;15.50;9.40;;;;;;;3.22;62.00;98148.56;117774;1205;23117;-59
2021/04/06 02:09:27;;;;;;;16.40;9.17;;;;;;;3.22;62.33;98140.49;118153;1203;22818;-60
2021/04/06 02:11:55;;;;;;;13.77;9.03;;;;;;;3.21;62.24;98134.30;117943;1203;23525;-60
2021/04/06 02:14:23;;;;;;;15.47;10.20;;;;;;;3.21;61.94;98134.30;118111;1203;23622;-59
2021/04/06 02:16:51;;;;;;;15.10;9.30;;;;;;;3.19;62.43;98147.17;115135;1209;23203;-59
2021/04/06 02:19:41;;;;;;;15.37;9.17;;;;;;;3.17;62.68;98133.95;118107;1203;22998;-59
2021/04/06 02:22:14;;;;;;;15.27;9.97;;;;;;;3.16;62.40;98128.84;118209;1203;22818;-59
2021/04/06 02:24:43;;;;;;;16.05;9.60;;;;;;;3.14;62.72;98134.47;118123;1203;22867;-60
2021/04/06 02:27:20;;;;;;;17.25;9.45;;;;;;;3.14;62.43;98131.78;118244;1203;22827;-59
2021/04/06 02:30:19;;;;;;;17.60;9.77;;;;;;;3.12;62.33;98119.63;118068;1206;22823;-58
2021/04/06 02:32:50;;;;;;;15.03;9.70;;;;;;;3.10;62.90;98127.94;118195;1203;23045;-59
2021/04/06 02:35:18;;;;;;;15.25;9.20;;;;;;;3.10;62.62;98125.25;117772;1205;23394;-58
2021/04/06 02:37:45;;;;;;;19.00;9.55;;;;;;;3.11;63.15;98117.98;118238;1203;22796;-58
2021/04/06 02:40:14;;;;;;;18.10;10.30;;;;;;;3.12;63.15;98127.70;118103;1208;23868;-59
2021/04/06 02:42:43;;;;;;;17.37;9.63;;;;;;;3.17;62.40;98135.86;118252;1205;22817;-59
2021/04/06 02:45:15;;;;;;;15.45;9.20;;;;;;;3.18;62.43;98126.70;118127;1203;28341;-58
2021/04/06 02:47:43;;;;;;;15.63;9.63;;;;;;;3.20;62.75;98133.47;117935;1203;22938;-58
2021/04/06 02:50:15;;;;;;;18.57;10.40;;;;;;;3.24;63.08;98135.69;117812;1206;22839;-59
2021/04/06 02:52:43;;;;;;;19.87;10.30;;;;;;;3.25;62.85;98137.31;118049;1208;22929;-59
2021/04/06 02:55:11;;;;;;;14.20;10.00;;;;;;;3.23;62.85;98124.10;117863;1200;22949;-59
2021/04/06 02:57:49;;;;;;;15.70;9.30;;;;;;;3.22;62.73;98130.55;118181;1208;22786;-58
2021/04/06 03:00:29;;;;;;;15.30;9.20;;;;;;;3.22;62.90;98124.34;117919;1203;22852;-59
2021/04/06 03:02:58;;;;;;;17.30;10.67;;;;;;;3.20;62.93;98128.09;118175;1203;22911;-59
2021/04/06 03:05:37;;;;;;;17.17;9.70;;;;;;;3.23;62.63;98123.28;118189;1203;23581;-59
2021/04/06 03:08:08;;;;;;;17.43;9.50;;;;;;;3.23;62.96;98132.17;118212;1208;22825;-59
2021/04/06 03:10:36;;;;;;;15.20;8.90;;;;;;;3.25;62.68;98130.06;118222;1207;22862;-59
2021/04/06 03:13:08;;;;;;;13.27;9.20;;;;;;;3.25;62.33;98134.63;118137;1203;22971;-58
2021/04/06 03:15:40;;;;;;;17.43;9.70;;;;;;;3.26;62.49;98128.19;117881;1203;22977;-59
2021/04/06 03:18:11;;;;;;;17.03;9.93;;;;;;;3.25;62.42;98140.83;118134;1208;22857;-59
2021/04/06 03:20:41;;;;;;;16.00;9.97;;;;;;;3.26;62.41;98150.53;118051;1208;22948;-59
2021/04/06 03:23:08;;;;;;;17.33;10.13;;;;;;;3.26;62.89;98153.22;118092;1203;23651;-59
2021/04/06 03:25:37;;;;;;;17.97;10.27;;;;;;;3.27;62.55;98145.97;118258;1209;22916;-59
2021/04/06 03:28:11;;;;;;;17.33;10.10;;;;;;;3.28;63.02;98144.91;118091;1203;22832;-58
2021/04/06 03:30:39;;;;;;;14.50;9.65;;;;;;;3.26;62.85;98147.02;118209;1201;22799;-59
2021/04/06 03:33:11;;;;;;;18.40;8.87;;;;;;;3.26;62.68;98144.34;118145;1203;23752;-59
2021/04/06 03:35:40;;;;;;;15.70;9.00;;;;;;;3.23;62.74;98151.02;118205;1203;22876;-59
2021/04/06 03:38:10;;;;;;;18.70;10.70;;;;;;;3.22;63.20;98141.30;118095;1203;22786;-59
2021/04/06 03:40:38;;;;;;;14.30;8.73;;;;;;;3.22;63.00;98148.56;118209;1203;22825;-59
2021/04/06 03:43:19;;;;;;;14.70;9.10;;;;;;;3.23;62.71;98151.02;118110;1204;22964;-58
2021/04/06 03:45:58;;;;;;;15.57;8.93;;;;;;;3.24;63.03;98151.83;117118;1208;25930;-57
2021/04/06 03:48:26;;;;;;;16.07;9.93;;;;;;;3.26;62.67;98152.41;118106;1203;22844;-59
2021/04/06 03:50:54;;;;;;;18.17;9.37;;;;;;;3.27;63.06;98154.05;118198;1203;22888;-59
2021/04/06 03:53:25;;;;;;;16.27;9.77;;;;;;;3.30;62.80;98150.88;117862;1206;22787;-59
2021/04/06 03:56:05;;;;;;;15.95;9.50;;;;;;;3.33;62.32;98150.35;118243;1207;22860;-58
2021/04/06 03:58:39;;;;;;;14.60;9.13;;;;;;;3.34;62.85;98146.61;118133;1203;22817;-59
2021/04/06 04:01:07;;;;;;;16.77;9.47;;;;;;;3.36;62.42;98156.07;118258;1203;22821;-59
2021/04/06 04:03:35;;;;;;;16.50;9.43;;;;;;;3.38;62.97;98151.27;118110;1203;22985;-59
2021/04/06 04:06:03;;;;;;;14.90;9.33;;;;;;;3.43;62.27;98153.23;117958;1205;22810;-59
2021/04/06 04:08:31;;;;;;;16.10;10.07;;;;;;;3.43;62.72;98140.59;118072;1203;22857;-58
2021/04/06 04:10:59;;;;;;;14.10;9.03;;;;;;;3.46;62.75;98141.98;118242;1203;22837;-59
2021/04/06 04:13:26;;;;;;;14.50;8.93;;;;;;;3.48;62.09;98142.52;118120;1203;23312;-59
2021/04/06 04:15:54;;;;;;;13.30;9.20;;;;;;;3.49;63.02;98141.46;118261;1203;22856;-59
2021/04/06 04:18:21;;;;;;;18.00;9.70;;;;;;;3.52;62.29;98133.71;117943;1203;23912;-59
2021/04/06 04:20:49;;;;;;;19.40;10.20;;;;;;;3.55;62.59;98132.41;117757;1203;22879;-59
2021/04/06 04:23:16;;;;;;;19.83;11.10;;;;;;;3.54;62.48;98136.16;118216;1203;22950;-58
2021/04/06 04:25:44;;;;;;;28.43;14.43;;;;;;;3.57;62.02;98143.75;118117;1206;23692;-63
2021/04/06 04:28:11;;;;;;;22.95;13.10;;;;;;;3.58;62.11;98150.77;118200;1203;23423;-65
2021/04/06 04:30:46;;;;;;;16.00;9.60;;;;;;;3.62;62.16;98167.23;118107;1203;22890;-65
2021/04/06 04:33:14;;;;;;;26.10;11.00;;;;;;;3.65;61.70;98172.95;118196;1203;23791;-65
2021/04/06 04:35:41;;;;;;;15.55;9.75;;;;;;;3.69;62.34;98167.89;117906;1209;23117;-65
2021/04/06 04:38:09;;;;;;;18.13;9.90;;;;;;;3.73;62.13;98175.24;118016;1207;22771;-65
2021/04/06 04:40:40;;;;;;;15.13;9.43;;;;;;;3.79;62.42;98168.84;118092;1203;23035;-65
2021/04/06 04:43:09;;;;;;;16.75;11.00;;;;;;;3.85;62.35;98162.48;118182;1203;22919;-65
2021/04/06 04:45:37;;;;;;;19.53;10.30;;;;;;;3.91;61.93;98163.34;118141;1208;22879;-65
2021/04/06 04:48:05;;;;;;;14.75;9.70;;;;;;;3.95;62.21;98158.29;118208;1209;22890;-65
2021/04/06 04:50:32;;;;;;;14.10;8.80;;;;;;;3.97;61.83;98158.86;118089;1203;22832;-65
2021/04/06 04:53:00;;;;;;;17.27;9.53;;;;;;;3.99;61.40;98156.73;118198;1205;22874;-65
2021/04/06 04:55:28;;;;;;;15.85;10.00;;;;;;;4.00;61.66;98161.06;118108;1203;22881;-59
2021/04/06 04:57:55;;;;;;;18.20;10.30;;;;;;;4.00;61.69;98158.37;118250;1207;22800;-59
2021/04/06 05:00:23;;;;;;;15.43;9.43;;;;;;;4.02;61.81;98164.33;118075;1208;22842;-59
2021/04/06 05:02:50;;;;;;;22.10;12.00;;;;;;;4.04;62.06;98170.29;118132;1205;22896;-59
2021/04/06 05:05:19;;;;;;;16.80;10.55;;;;;;;4.05;62.00;98167.31;118064;1206;22784;-59
2021/04/06 05:07:47;;;;;;;14.85;10.40;;;;;;;4.08;62.20;98171.40;118188;1203;22928;-58
2021/04/06 05:10:16;;;;;;;16.90;11.20;;;;;;;4.11;61.88;98168.21;118210;1203;22798;-58
2021/04/06 05:12:47;;;;;;;26.25;13.05;;;;;;;4.15;61.68;98166.66;117653;1205;22918;-58
2021/04/06 05:15:16;;;;;;;21.50;11.53;;;;;;;4.21;61.77;98162.95;117748;1205;24165;-58
2021/04/06 05:17:44;;;;;;;24.60;13.25;;;;;;;4.26;61.34;98171.11;117665;1206;22913;-58
2021/04/06 05:20:12;;;;;;;19.57;11.87;;;;;;;4.32;61.67;98166.61;117686;1205;22904;-58
2021/04/06 05:22:40;;;;;;;20.37;11.50;;;;;;;4.38;61.42;98154.80;117707;1209;22868;-58
2021/04/06 05:25:11;;;;;;;20.70;11.80;;;;;;;4.44;61.35;98161.89;117798;1206;22832;-59
2021/04/06 05:30:51;;;;;;;20.20;10.75;;;;;;;4.62;61.24;98159.66;113453;1204;26101;-63
2021/04/06 05:33:22;;;;;;;20.25;11.55;;;;;;;4.72;60.76;98160.86;117276;1208;23611;-64
2021/04/06 05:35:52;;;;;;;21.75;10.45;;;;;;;4.80;61.06;98157.70;117284;1208;22848;-63
2021/04/06 05:38:23;;;;;;;18.97;11.13;;;;;;;4.91;60.95;98154.84;117286;1209;22942;-63
2021/04/06 05:40:51;;;;;;;15.17;9.87;;;;;;;5.02;61.08;98155.78;117402;1209;23487;-63
2021/04/06 05:43:19;;;;;;;18.90;10.35;;;;;;;5.15;60.52;98162.64;117223;1208;23885;-63
2021/04/06 05:45:49;;;;;;;17.10;10.40;;;;;;;5.26;59.97;98157.06;117365;1209;22902;-63
2021/04/06 05:48:17;;;;;;;17.67;10.03;;;;;;;5.39;59.27;98163.11;117134;1209;22883;-63
2021/04/06 05:50:46;;;;;;;15.63;9.90;;;;;;;5.49;59.06;98157.78;117365;1208;22843;-63
2021/04/06 05:53:14;;;;;;;17.97;11.33;;;;;;;5.61;58.86;98158.44;117301;1209;22879;-63
2021/04/06 05:55:42;;;;;;;17.83;9.60;;;;;;;5.72;59.11;98159.31;117226;1212;22889;-63
2021/04/06 05:58:11;;;;;;;17.80;10.10;;;;;;;5.86;59.54;98160.48;117229;1209;22850;-62
2021/04/06 06:00:40;;;;;;;17.85;10.70;;;;;;;5.99;58.42;98158.17;117393;1209;24138;-63
2021/04/06 06:03:08;;;;;;;18.85;11.70;;;;;;;6.14;57.91;98162.84;117253;1209;22908;-63
2021/04/06 06:05:36;;;;;;;23.25;9.85;;;;;;;6.27;57.90;98164.25;117358;1209;22944;-63
2021/04/06 06:08:08;;;;;;;16.10;10.30;;;;;;;6.38;57.67;98160.52;117154;1209;24047;-62
2021/04/06 06:10:37;;;;;;;15.87;9.97;;;;;;;6.51;56.73;98162.73;117367;1209;22852;-63
2021/04/06 06:13:24;;;;;;;19.80;10.30;;;;;;;6.63;56.95;98157.92;117155;1208;22838;-63
2021/04/06 06:16:12;;;;;;;16.00;9.70;;;;;;;6.75;56.01;98163.09;117289;1209;22846;-63
2021/04/06 06:19:00;;;;;;;18.05;10.50;;;;;;;6.88;55.74;98165.30;117119;1212;22889;-62
2021/04/06 06:21:42;;;;;;;22.43;11.57;;;;;;;6.98;56.21;98167.20;117285;1208;22800;-62
2021/04/06 06:24:19;;;;;;;20.33;11.70;;;;;;;7.10;56.02;98170.47;117272;1209;22911;-62
2021/04/06 06:26:47;;;;;;;14.90;9.55;;;;;;;7.21;56.29;98163.20;114742;1212;23130;-62
2021/04/06 06:29:34;;;;;;;24.75;10.30;;;;;;;7.33;55.95;98174.58;117108;1209;22950;-63
2021/04/06 06:32:03;;;;;;;19.37;10.53;;;;;;;7.44;55.06;98187.86;117342;1209;22990;-63
2021/04/06 06:34:32;;;;;;;19.63;10.63;;;;;;;7.55;55.48;98185.95;117148;1209;23004;-64
2021/04/06 06:37:04;;;;;;;18.75;10.50;;;;;;;7.65;54.68;98179.70;117275;1209;23877;-64
2021/04/06 06:39:33;;;;;;;18.15;10.35;;;;;;;7.73;54.33;98184.60;117151;1209;22967;-64
2021/04/06 06:42:07;;;;;;;18.55;11.60;;;;;;;7.81;53.69;98194.88;117364;1209;22803;-64
2021/04/06 06:44:34;;;;;;;18.25;11.10;;;;;;;7.87;53.39;98191.09;117318;1212;23025;-65
2021/04/06 06:47:07;;;;;;;19.20;11.05;;;;;;;7.92;53.04;98193.00;117358;1209;23123;-65
2021/04/06 06:49:37;;;;;;;16.90;11.00;;;;;;;7.97;53.66;98190.26;117182;1212;22910;-64
2021/04/06 06:52:27;;;;;;;19.55;11.65;;;;;;;8.02;52.98;98192.98;116555;1209;23928;-63
2021/04/06 06:54:58;;;;;;;18.05;11.40;;;;;;;8.08;53.70;98198.10;113405;1212;23175;-63
2021/04/06 06:57:33;;;;;;;15.90;10.60;;;;;;;8.13;53.14;98202.71;117205;1209;22982;-64
2021/04/06 07:00:19;;;;;;;16.35;10.05;;;;;;;8.19;53.30;98192.67;117257;1208;23059;-64
2021/04/06 07:02:47;;;;;;;17.35;10.90;;;;;;;8.26;52.86;98187.76;117216;1212;25228;-64
2021/04/06 07:05:15;;;;;;;24.93;11.17;;;;;;;8.33;53.32;98182.91;116979;1211;22967;-64
2021/04/06 07:08:04;;;;;;;22.90;13.80;;;;;;;8.42;52.18;98186.66;117342;1209;22962;-64
2021/04/06 07:10:50;;;;;;;19.50;11.05;;;;;;;8.52;52.61;98189.33;117076;1209;23751;-64
2021/04/06 07:13:21;;;;;;;16.73;9.77;;;;;;;8.62;52.19;98183.06;117246;1209;22909;-64
2021/04/06 07:15:52;;;;;;;14.40;9.80;;;;;;;8.72;52.72;98175.68;117210;1209;22901;-65
2021/04/06 07:18:22;;;;;;;18.10;9.95;;;;;;;8.84;51.75;98178.06;117271;1209;22948;-64
2021/04/06 07:21:03;;;;;;;16.00;10.30;;;;;;;8.93;51.30;98184.55;117142;1209;22849;-65
2021/04/06 07:23:44;;;;;;;27.10;11.75;;;;;;;9.04;50.86;98188.02;114431;1212;23173;-63
2021/04/06 07:26:14;;;;;;;19.45;10.65;;;;;;;9.14;50.86;98193.38;117256;1209;22984;-64
2021/04/06 07:28:44;;;;;;;17.25;10.90;;;;;;;9.23;50.70;98188.19;117392;1209;22871;-65
2021/04/06 07:31:14;;;;;;;14.90;10.05;;;;;;;9.31;50.16;98187.58;117230;1208;23051;-65
2021/04/06 07:33:45;;;;;;;14.75;9.40;;;;;;;9.37;49.98;98184.55;117281;1209;22905;-64
2021/04/06 07:36:17;;;;;;;17.35;9.85;;;;;;;9.45;49.66;98183.13;115601;1209;23154;-58
2021/04/06 07:38:51;;;;;;;22.15;10.45;;;;;;;9.50;49.24;98183.09;117342;1209;22888;-57
2021/04/06 07:41:24;;;;;;;14.97;9.53;;;;;;;9.55;49.12;98183.84;117163;1209;22884;-58
2021/04/06 07:43:56;;;;;;;15.20;9.65;;;;;;;9.59;48.90;98184.09;117219;1209;22955;-57
2021/04/06 07:46:32;;;;;;;24.80;10.20;;;;;;;9.62;49.32;98188.98;117384;1209;22839;-57
2021/04/06 07:49:01;;;;;;;;;;;;;;;9.68;48.90;98184.29;117398;1213;22808;-58
2021/04/06 07:51:30;;;;;;;;;;;;;;;9.76;48.77;98194.57;117374;1209;22292;-57
2021/04/06 07:54:05;;;;;;;15.17;9.37;;;;;;;9.81;48.31;98187.16;117311;1208;21532;-57
2021/04/06 07:56:58;;;;;;;18.40;9.00;;;;;;;9.87;48.73;98183.31;117217;1212;22995;-58
2021/04/06 07:59:26;;;;;;;20.25;10.20;;;;;;;9.96;48.49;98197.09;117288;1209;23326;-57
2021/04/06 08:01:53;;;;;;;16.53;9.17;;;;;;;10.02;47.84;98195.15;117387;1209;23238;-58
2021/04/06 08:04:24;;;;;;;17.47;9.03;;;;;;;10.07;47.54;98200.55;117244;1208;23549;-58
2021/04/06 08:06:55;;;;;;;20.55;9.75;;;;;;;10.12;47.44;98204.02;117226;1209;23685;-56
2021/04/06 08:09:32;;;;;;;16.15;10.15;;;;;;;10.17;47.51;98201.26;117133;1209;22897;-55
2021/04/06 08:12:14;;;;;;;12.90;9.10;;;;;;;10.24;46.62;98211.85;117224;1209;22947;-55
2021/04/06 08:14:48;;;;;;;13.37;8.53;;;;;;;10.28;46.81;98197.36;117305;1209;24175;-56
2021/04/06 08:17:25;;;;;;;16.27;8.97;;;;;;;10.36;46.86;98204.09;117272;1209;22984;-55
2021/04/06 08:20:07;;;;;;;54.90;11.08;;;;;;;10.44;46.49;98198.01;117236;1208;22880;-55
2021/04/06 08:22:45;;;;;;;16.80;8.30;;;;;;;10.54;46.24;98195.16;117268;1212;22860;-56
2021/04/06 08:25:29;;;;;;;13.57;8.00;;;;;;;10.63;46.17;98190.71;117439;1207;23380;-55
2021/04/06 08:28:24;;;;;;;13.80;7.65;;;;;;;10.73;45.97;98187.05;117394;1208;22842;-55
2021/04/06 08:31:14;;;;;;;11.68;8.08;;;;;;;10.82;45.74;98190.73;117284;1209;23670;-55
2021/04/06 08:33:42;;;;;;;14.20;8.17;;;;;;;10.92;45.09;98187.08;117232;1209;22935;-55
2021/04/06 08:36:09;;;;;;;14.00;8.60;;;;;;;10.97;44.94;98185.08;117252;1208;22855;-55
2021/04/06 08:38:37;;;;;;;17.10;9.00;;;;;;;11.04;44.88;98187.46;117303;1212;22980;-55
2021/04/06 08:41:13;;;;;;;13.93;8.05;;;;;;;11.09;45.03;98183.86;117332;1209;22836;-55
2021/04/06 08:43:46;;;;;;;12.77;7.80;;;;;;;11.15;45.12;98185.39;117245;1209;22897;-55
2021/04/06 08:46:49;;;;;;;14.33;8.00;;;;;;;11.22;44.63;98191.30;117368;1209;23813;-55
2021/04/06 08:49:22;;;;;;;13.03;8.30;;;;;;;11.28;44.43;98181.93;117137;1209;23545;-55
2021/04/06 08:51:52;;;;;;;12.30;7.50;;;;;;;11.36;44.05;98181.28;117320;1209;22970;-55
2021/04/06 08:54:21;;;;;;;13.55;8.30;;;;;;;11.40;43.89;98178.78;117200;1209;23064;-55
2021/04/06 08:56:59;;;;;;;17.23;8.53;;;;;;;11.47;43.75;98182.73;117402;1208;23510;-55
2021/04/06 08:59:35;;;;;;;13.40;7.67;;;;;;;11.56;43.92;98172.77;117241;1209;22855;-55
2021/04/06 09:02:03;;;;;;;11.60;7.40;;;;;;;11.63;43.23;98181.40;117304;1208;22797;-55
2021/04/06 09:04:32;;;;;;;11.30;7.60;;;;;;;11.67;43.40;98176.97;117270;1212;22937;-55
2021/04/06 09:06:59;;;;;;;15.30;7.85;;;;;;;11.75;42.49;98180.92;117269;1209;23710;-55
2021/04/06 09:09:30;;;;;;;12.00;8.05;;;;;;;11.78;42.27;98168.64;117253;1212;22931;-55
2021/04/06 09:11:59;;;;;;;14.05;7.10;;;;;;;11.81;42.17;98162.59;117198;1209;22864;-55
2021/04/06 09:14:28;;;;;;;12.05;7.15;;;;;;;11.85;41.68;98166.32;117247;1212;22884;-55
2021/04/06 09:16:56;;;;;;;35.53;20.43;;;;;;;11.89;41.60;98159.97;114391;1211;23173;-53
2021/04/06 09:19:24;;;;;;;26.75;16.25;;;;;;;11.94;41.56;98162.63;117300;1208;23695;-55
2021/04/06 09:21:56;;;;;;;39.97;22.17;;;;;;;12.00;41.54;98155.95;117253;1208;22804;-55
2021/04/06 09:24:24;;;;;;;41.80;17.43;;;;;;;12.09;41.86;98166.19;117207;1208;23702;-56
2021/04/06 09:26:53;;;;;;;13.83;8.05;;;;;;;12.17;41.93;98160.83;117247;1209;23757;-56
2021/04/06 09:29:32;;;;;;;10.68;6.48;;;;;;;12.24;40.42;98153.06;117420;1209;22844;-56
2021/04/06 09:32:03;;;;;;;20.90;11.60;;;;;;;12.31;41.13;98158.92;117122;1209;22852;-56
2021/04/06 09:34:36;;;;;;;12.75;7.28;;;;;;;12.39;40.80;98152.78;117286;1212;22947;-55
2021/04/06 09:37:12;;;;;;;17.68;9.83;;;;;;;12.43;40.03;98155.69;117276;1209;23632;-55
2021/04/06 09:39:46;;;;;;;14.90;9.47;;;;;;;12.48;40.39;98155.59;117374;1208;22857;-55
2021/04/06 09:42:14;;;;;;;20.65;10.98;;;;;;;12.52;40.62;98166.73;117226;1209;22923;-55
2021/04/06 09:44:45;;;;;;;60.83;28.15;;;;;;;12.57;40.32;98163.88;117367;1209;22836;-55
2021/04/06 09:47:15;;;;;;;29.63;16.53;;;;;;;12.59;40.03;98162.47;117120;1209;23486;-55
2021/04/06 09:49:54;;;;;;;20.45;11.45;;;;;;;12.61;39.81;98164.90;117352;1212;22935;-55
2021/04/06 09:52:27;;;;;;;13.58;7.30;;;;;;;12.63;40.18;98149.83;117169;1209;22909;-55
2021/04/06 09:54:58;;;;;;;10.35;6.55;;;;;;;12.65;39.85;98144.87;117231;1212;22916;-55
2021/04/06 09:57:41;;;;;;;11.33;6.50;;;;;;;12.68;39.79;98148.92;117261;1208;22978;-54
2021/04/06 10:00:20;;;;;;;12.20;6.68;;;;;;;12.71;39.29;98151.02;117319;1208;22867;-57
2021/04/06 10:03:09;;;;;;;17.70;9.00;;;;;;;12.72;39.17;98144.44;117151;1212;22886;-55
2021/04/06 10:05:39;;;;;;;20.78;11.18;;;;;;;12.75;38.99;98143.84;117321;1208;22870;-56
2021/04/06 10:08:12;;;;;;;14.43;7.85;;;;;;;12.77;38.92;98140.80;117248;1209;22983;-55
2021/04/06 10:10:58;;;;;;;10.68;6.33;;;;;;;12.79;38.98;98135.84;117289;1209;23805;-55
2021/04/06 10:13:25;;;;;;;8.20;5.85;;;;;;;12.82;39.53;98140.70;117258;1209;23597;-55
2021/04/06 10:16:06;;;;;;;9.13;6.08;;;;;;;12.85;39.26;98140.06;117288;1208;22959;-55
2021/04/06 10:18:45;;;;;;;10.05;5.65;;;;;;;12.87;38.28;98135.11;117118;1209;22989;-55
2021/04/06 10:21:26;;;;;;;9.30;6.60;;;;;;;12.87;38.56;98135.92;117381;1208;22807;-55
2021/04/06 10:24:04;;;;;;;11.25;6.90;;;;;;;12.87;38.49;98133.19;117156;1209;22926;-55
2021/04/06 10:26:31;;;;;;;11.60;6.45;;;;;;;12.87;38.14;98129.64;117290;1209;22923;-55
2021/04/06 10:29:09;;;;;;;9.95;6.40;;;;;;;12.86;38.08;98120.63;117328;1208;22830;-55
2021/04/06 10:31:50;;;;;;;12.40;7.98;;;;;;;12.88;38.29;98120.33;117253;1209;23044;-55
2021/04/06 10:34:18;;;;;;;13.80;6.18;;;;;;;12.91;38.35;98120.53;117291;1209;22892;-56
2021/04/06 10:37:08;;;;;;;17.95;6.80;;;;;;;12.92;38.41;98121.34;117197;1214;23019;-55
2021/04/06 10:39:38;;;;;;;10.55;6.20;;;;;;;12.94;38.19;98119.11;117248;1208;22914;-55
2021/04/06 10:42:08;;;;;;;9.50;6.40;;;;;;;12.96;38.06;98125.08;117245;1208;22899;-55
2021/04/06 10:44:36;;;;;;;8.25;5.65;;;;;;;12.96;38.31;98123.16;117295;1212;23749;-55
2021/04/06 10:47:05;;;;;;;13.40;6.78;;;;;;;12.98;38.24;98120.13;117338;1209;23653;-55
2021/04/06 10:49:33;;;;;;;11.03;7.23;;;;;;;12.97;38.22;98124.78;117258;1209;22839;-55
2021/04/06 10:52:07;;;;;;;15.55;8.13;;;;;;;12.95;37.98;98127.01;117241;1208;22932;-55
2021/04/06 10:54:36;;;;;;;12.95;7.80;;;;;;;12.92;38.25;98122.15;117266;1212;23607;-55
2021/04/06 10:57:04;;;;;;;18.63;11.03;;;;;;;12.87;38.03;98116.78;117340;1212;23962;-55
2021/04/06 10:59:52;;;;;;;26.13;12.83;;;;;;;12.85;39.03;98113.54;117137;1208;22839;-55
2021/04/06 11:02:24;;;;;;;12.05;8.70;;;;;;;12.86;39.17;98114.35;117412;1209;22836;-55
2021/04/06 11:04:51;;;;;;;14.45;9.28;;;;;;;12.89;38.30;98114.55;117290;1212;22883;-55
2021/04/06 11:07:28;;;;;;;12.93;8.00;;;;;;;12.89;38.70;98105.55;117320;1209;22832;-55
2021/04/06 11:10:06;;;;;;;10.53;7.03;;;;;;;12.88;38.34;98107.47;117194;1209;22875;-55
2021/04/06 11:12:36;;;;;;;15.95;8.40;;;;;;;12.85;38.61;98105.34;117282;1215;23717;-55
2021/04/06 11:15:04;;;;;;;14.63;8.33;;;;;;;12.83;38.68;98112.25;117244;1212;22987;-55
2021/04/06 11:17:31;;;;;;;43.00;9.93;;;;;;;12.82;39.39;98110.64;117321;1208;22901;-55
2021/04/06 11:19:59;;;;;;;15.38;6.70;;;;;;;12.81;39.03;98109.83;117211;1208;22901;-55
2021/04/06 11:22:26;;;;;;;19.80;8.25;;;;;;;12.80;38.27;98115.59;117273;1209;22989;-55
2021/04/06 11:24:54;;;;;;;14.03;8.20;;;;;;;12.75;38.28;98109.12;117226;1212;22944;-55
2021/04/06 11:27:22;;;;;;;14.20;7.40;;;;;;;12.71;38.02;98105.37;113725;1209;23446;-56
2021/04/06 11:29:50;;;;;;;15.90;8.55;;;;;;;12.68;38.64;98091.53;113452;1212;27201;-55
2021/04/06 11:32:19;;;;;;;18.83;8.78;;;;;;;12.65;38.55;98101.15;113297;1209;23133;-55
2021/04/06 11:34:48;;;;;;;18.90;9.03;;;;;;;12.61;38.25;98097.40;113431;1212;23280;-54
2021/04/06 11:37:15;;;;;;;15.08;7.48;;;;;;;12.59;38.47;98090.62;117109;1209;22950;-57
2021/04/06 11:39:45;;;;;;;12.90;7.27;;;;;;;12.57;38.45;98090.92;117300;1209;22864;-57
2021/04/06 11:42:14;;;;;;;22.08;9.65;;;;;;;12.57;38.31;98082.72;117266;1208;22889;-58
2021/04/06 11:44:45;;;;;;;14.73;8.40;;;;;;;12.57;38.69;98090.92;117361;1208;22909;-57
2021/04/06 11:47:12;;;;;;;14.63;7.65;;;;;;;12.58;38.52;98089.00;117143;1212;22920;-57